Time;durP1;ratioP1;P1;durP2;ratioP2;P2;SDS_P1;SDS_P2;PMS_P1;PMS_P2;Temp;Humidity;BMP_temperature;BMP_pressure;BME280_temperature;BME280_humidity;BME280_pressure;Samples;Min_cycle;Max_cycle;Signal;HPM_P1;HPM_P2
2023/07/27 00:01:09;;;;;;;5.93;4.72;;;15.10;21.90;;;;;;5032638;28;20034;-80
2023/07/27 00:03:36;;;;;;;6.40;4.60;;;15.20;15.80;;;;;;5049257;28;20053;-80
2023/07/27 00:06:02;;;;;;;6.00;4.25;;;15.20;9.80;;;;;;5038312;28;20056;-78
2023/07/27 00:08:29;;;;;;;6.40;4.07;;;15.20;3.40;;;;;;5032473;28;20048;-82
2023/07/27 00:10:55;;;;;;;4.47;3.35;;;15.20;1.00;;;;;;5035867;28;20037;-81
2023/07/27 00:13:22;;;;;;;6.00;4.43;;;15.20;1.00;;;;;;5033522;28;20044;-80
2023/07/27 00:15:48;;;;;;;5.68;3.70;;;15.20;1.00;;;;;;5035437;28;20048;-81
2023/07/27 00:18:14;;;;;;;4.80;3.47;;;15.30;1.00;;;;;;5030139;28;20041;-84
2023/07/27 00:20:40;;;;;;;4.82;3.47;;;15.30;1.00;;;;;;5029864;28;20038;-80
2023/07/27 00:23:06;;;;;;;6.68;3.22;;;15.40;1.00;;;;;;5035134;28;20031;-80
2023/07/27 00:25:32;;;;;;;7.05;4.00;;;15.30;1.00;;;;;;5024723;28;20113;-81
2023/07/27 00:27:58;;;;;;;5.95;3.15;;;15.30;1.00;;;;;;5037125;28;20033;-81
2023/07/27 00:30:25;;;;;;;5.75;3.22;;;15.30;1.00;;;;;;5037641;28;20044;-80
2023/07/27 00:32:51;;;;;;;4.35;2.97;;;15.30;1.00;;;;;;5035332;28;20397;-83
2023/07/27 00:35:17;;;;;;;4.18;2.97;;;15.30;1.00;;;;;;5032945;28;20052;-81
2023/07/27 00:37:45;;;;;;;4.47;3.08;;;15.30;1.00;;;;;;5043659;28;20413;-80
2023/07/27 00:40:11;;;;;;;5.05;3.53;;;15.30;1.00;;;;;;5036972;28;20029;-82
2023/07/27 00:42:37;;;;;;;4.63;3.22;;;15.30;1.00;;;;;;5033555;28;20032;-81
2023/07/27 00:45:04;;;;;;;7.85;3.67;;;15.30;1.00;;;;;;5038712;28;20099;-85
2023/07/27 00:47:30;;;;;;;6.43;2.90;;;15.20;1.00;;;;;;5034177;28;20036;-80
2023/07/27 00:49:56;;;;;;;6.82;3.85;;;15.20;1.00;;;;;;5031750;28;20052;-80
2023/07/27 00:52:23;;;;;;;5.97;3.45;;;15.20;1.00;;;;;;5047923;28;20107;-81
2023/07/27 00:54:49;;;;;;;5.60;3.88;;;15.20;1.00;;;;;;5053809;28;20037;-82
2023/07/27 00:57:17;;;;;;;5.65;3.70;;;15.20;1.00;;;;;;5036544;28;20037;-86
2023/07/27 00:59:43;;;;;;;4.18;3.08;;;15.20;1.00;;;;;;5038911;28;20501;-81
2023/07/27 01:02:09;;;;;;;6.53;3.90;;;15.20;1.00;;;;;;5040718;28;20044;-81
2023/07/27 01:04:36;;;;;;;4.88;3.67;;;15.20;1.00;;;;;;5037836;28;20493;-81
2023/07/27 01:07:02;;;;;;;8.10;3.53;;;15.20;1.00;;;;;;5034928;28;20034;-81
2023/07/27 01:09:30;;;;;;;5.78;3.75;;;15.20;1.00;;;;;;5036665;28;20045;-81
2023/07/27 01:12:00;;;;;;;6.20;3.22;;;15.20;1.00;;;;;;5035374;28;20032;-81
2023/07/27 01:14:56;;;;;;;4.10;2.92;;;15.20;1.70;;;;;;5035542;28;20045;-80
2023/07/27 01:17:47;;;;;;;4.82;3.22;;;15.10;1.00;;;;;;5034617;28;20037;-81
2023/07/27 01:20:29;;;;;;;6.55;3.58;;;15.10;3.10;;;;;;5034048;28;20096;-86
2023/07/27 01:23:27;;;;;;;5.53;3.10;;;15.10;10.70;;;;;;5037612;28;20060;-81
2023/07/27 01:26:16;;;;;;;8.68;3.67;;;15.10;12.80;;;;;;5038990;28;20052;-82
2023/07/27 01:29:19;;;;;;;6.72;3.58;;;15.10;14.70;;;;;;5036894;28;20025;-82
2023/07/27 01:31:48;;;;;;;5.85;3.20;;;15.10;22.50;;;;;;5038070;28;20046;-82
2023/07/27 01:34:29;;;;;;;6.75;3.60;;;15.10;19.40;;;;;;5034698;28;20064;-85
2023/07/27 01:37:02;;;;;;;5.43;3.25;;;15.20;13.00;;;;;;5037641;28;20041;-79
2023/07/27 01:39:34;;;;;;;6.75;3.30;;;15.10;17.00;;;;;;5037867;28;20458;-81
2023/07/27 01:42:02;;;;;;;3.88;2.88;;;15.10;18.70;;;;;;5038641;28;20494;-81
2023/07/27 01:44:32;;;;;;;6.43;3.80;;;15.10;18.40;;;;;;5034221;28;20029;-80
2023/07/27 01:47:00;;;;;;;5.28;3.10;;;15.10;16.80;;;;;;5028907;28;20029;-80
2023/07/27 01:49:28;;;;;;;4.47;2.80;;;15.10;19.60;;;;;;5048583;28;20037;-81
2023/07/27 01:51:56;;;;;;;7.70;3.42;;;15.10;15.10;;;;;;5038375;28;20029;-81
2023/07/27 01:54:22;;;;;;;5.28;3.53;;;15.20;16.10;;;;;;5027363;28;20034;-81
2023/07/27 01:56:50;;;;;;;4.90;3.05;;;15.20;17.20;;;;;;5041158;28;20041;-80
2023/07/27 01:59:17;;;;;;;6.18;3.63;;;15.20;20.30;;;;;;5035882;28;20049;-85
2023/07/27 02:01:44;;;;;;;6.60;3.40;;;15.20;19.60;;;;;;5051398;28;20049;-81
2023/07/27 02:04:11;;;;;;;5.32;3.10;;;15.20;18.30;;;;;;5053248;28;20052;-83
2023/07/27 02:06:38;;;;;;;5.90;3.28;;;15.10;8.70;;;;;;5029245;28;20068;-80
2023/07/27 02:09:04;;;;;;;7.90;3.40;;;15.20;11.50;;;;;;5033583;28;20057;-80
2023/07/27 02:11:30;;;;;;;5.22;3.90;;;15.20;15.60;;;;;;5043146;28;20041;-80
2023/07/27 02:14:18;;;;;;;8.57;3.40;;;15.20;13.40;;;;;;5056591;28;20056;-80
2023/07/27 02:17:06;;;;;;;6.20;3.25;;;15.10;8.70;;;;;;5031471;28;20049;-82
2023/07/27 02:19:37;;;;;;;3.90;3.10;;;15.10;8.70;;;;;;5034399;28;20037;-79
2023/07/27 02:22:06;;;;;;;5.30;3.50;;;15.10;10.90;;;;;;5053310;28;20041;-81
2023/07/27 02:24:33;;;;;;;6.05;3.40;;;15.00;18.10;;;;;;5036975;28;20382;-80
2023/07/27 02:27:00;;;;;;;5.35;3.20;;;15.00;15.70;;;;;;5051338;28;20042;-80
2023/07/27 02:29:26;;;;;;;6.22;2.92;;;15.00;16.30;;;;;;5032716;28;20041;-81
2023/07/27 02:31:52;;;;;;;4.85;3.17;;;15.00;21.90;;;;;;5047438;28;20391;-80
2023/07/27 02:34:19;;;;;;;6.38;4.13;;;15.00;22.20;;;;;;5035301;28;20060;-83
2023/07/27 02:36:46;;;;;;;4.28;3.42;;;14.90;17.50;;;;;;5036685;28;20081;-80
2023/07/27 02:39:12;;;;;;;5.40;3.58;;;14.90;23.30;;;;;;5035600;28;20029;-80
2023/07/27 02:41:38;;;;;;;3.97;3.30;;;14.90;25.10;;;;;;5049625;28;20064;-80
2023/07/27 02:44:09;;;;;;;6.20;3.00;;;14.90;22.80;;;;;;5052048;28;20042;-81
2023/07/27 02:46:35;;;;;;;4.97;2.80;;;15.00;20.50;;;;;;5033272;28;20036;-81
2023/07/27 02:49:01;;;;;;;5.32;3.28;;;15.00;15.90;;;;;;5036237;28;20033;-81
2023/07/27 02:51:27;;;;;;;4.38;3.03;;;15.00;11.20;;;;;;5032896;28;20041;-80
2023/07/27 02:53:58;;;;;;;4.75;2.92;;;15.00;10.70;;;;;;5052971;28;20044;-80
2023/07/27 02:56:28;;;;;;;5.05;3.70;;;15.00;14.80;;;;;;5049391;28;20047;-81
2023/07/27 02:58:54;;;;;;;5.88;3.70;;;15.00;19.10;;;;;;5030765;28;20384;-80
2023/07/27 03:01:22;;;;;;;6.20;3.33;;;15.00;15.50;;;;;;5046201;28;20037;-86
2023/07/27 03:03:55;;;;;;;5.93;3.38;;;15.00;4.90;;;;;;5033130;28;20491;-80
2023/07/27 03:06:21;;;;;;;5.40;3.25;;;15.00;11.60;;;;;;5046973;28;20048;-84
2023/07/27 03:08:54;;;;;;;5.68;3.58;;;15.00;8.50;;;;;;5016357;28;20052;-81
2023/07/27 03:11:20;;;;;;;4.85;2.88;;;15.00;4.30;;;;;;5054208;28;20058;-86
2023/07/27 03:13:46;;;;;;;6.43;3.30;;;15.00;5.90;;;;;;5052720;28;20048;-80
2023/07/27 03:16:12;;;;;;;4.40;3.30;;;15.00;7.50;;;;;;5035760;28;20084;-80
2023/07/27 03:18:39;;;;;;;6.07;3.30;;;15.00;2.50;;;;;;5048757;28;20041;-81
2023/07/27 03:21:05;;;;;;;4.95;3.35;;;14.90;2.90;;;;;;5034081;28;20033;-80
2023/07/27 03:23:33;;;;;;;4.32;2.80;;;14.90;2.20;;;;;;5051394;28;20068;-80
2023/07/27 03:25:59;;;;;;;7.60;3.60;;;14.90;5.30;;;;;;5033030;28;20048;-81
2023/07/27 03:28:25;;;;;;;5.88;3.15;;;14.80;9.90;;;;;;5030066;28;20061;-81
2023/07/27 03:30:52;;;;;;;6.38;3.15;;;14.80;9.00;;;;;;5034742;28;20040;-80
2023/07/27 03:33:18;;;;;;;6.07;3.17;;;14.80;12.30;;;;;;5034586;28;20467;-80
2023/07/27 03:35:45;;;;;;;8.70;3.10;;;14.80;11.00;;;;;;5034650;28;20048;-81
2023/07/27 03:38:11;;;;;;;5.07;3.50;;;14.80;11.90;;;;;;5034699;28;20042;-80
2023/07/27 03:40:37;;;;;;;5.57;3.53;;;14.80;13.20;;;;;;5048797;28;20050;-81
2023/07/27 03:43:05;;;;;;;4.68;3.10;;;14.80;18.50;;;;;;5032464;28;20405;-78
2023/07/27 03:45:31;;;;;;;4.10;3.13;;;14.80;7.40;;;;;;5031773;28;20045;-79
2023/07/27 03:47:57;;;;;;;5.43;3.28;;;14.80;13.40;;;;;;5051105;28;20044;-79
2023/07/27 03:50:23;;;;;;;5.22;3.20;;;14.70;19.70;;;;;;5033720;28;20052;-85
2023/07/27 03:52:50;;;;;;;5.80;3.28;;;14.70;12.70;;;;;;5035134;28;20032;-80
2023/07/27 03:55:18;;;;;;;4.65;3.53;;;14.70;16.20;;;;;;5035579;28;20052;-79
2023/07/27 03:57:48;;;;;;;5.25;3.30;;;14.70;12.00;;;;;;5050865;28;20053;-81
2023/07/27 04:00:14;;;;;;;3.97;3.15;;;14.70;6.80;;;;;;5034096;28;20061;-80
2023/07/27 04:02:40;;;;;;;3.88;3.22;;;14.80;10.50;;;;;;5038519;28;20041;-81
2023/07/27 04:05:06;;;;;;;5.95;3.53;;;14.80;8.80;;;;;;5029425;28;20045;-80
2023/07/27 04:07:33;;;;;;;5.22;3.45;;;14.70;13.10;;;;;;5032959;28;20381;-79
2023/07/27 04:09:59;;;;;;;6.28;3.42;;;14.80;6.00;;;;;;5054552;28;20402;-80
2023/07/27 04:12:25;;;;;;;4.97;3.45;;;14.80;3.40;;;;;;5047454;28;20622;-83
2023/07/27 04:14:51;;;;;;;6.95;3.35;;;14.80;1.10;;;;;;5033159;28;20045;-79
2023/07/27 04:17:17;;;;;;;5.60;3.20;;;14.80;1.00;;;;;;5047242;28;20061;-80
2023/07/27 04:19:43;;;;;;;3.78;3.17;;;14.90;1.00;;;;;;5031239;28;20029;-80
2023/07/27 04:22:09;;;;;;;3.95;2.75;;;14.90;1.00;;;;;;5052519;28;20052;-79
2023/07/27 04:24:38;;;;;;;6.15;3.38;;;14.90;1.00;;;;;;5029862;28;20050;-78
2023/07/27 04:27:04;;;;;;;5.22;3.38;;;14.90;1.00;;;;;;5030162;28;20045;-79
2023/07/27 04:29:31;;;;;;;6.93;2.72;;;15.00;1.00;;;;;;5040624;28;20344;-78
2023/07/27 04:31:57;;;;;;;6.13;3.00;;;15.00;1.00;;;;;;5054335;28;20041;-79
2023/07/27 04:34:26;;;;;;;4.25;2.88;;;15.00;1.00;;;;;;5037754;28;20045;-79
2023/07/27 04:36:52;;;;;;;4.65;3.47;;;15.00;1.00;;;;;;5038330;28;20025;-80
2023/07/27 04:39:18;;;;;;;6.53;2.88;;;15.00;1.00;;;;;;5038194;28;20909;-77
2023/07/27 04:41:44;;;;;;;4.60;2.92;;;15.00;1.00;;;;;;5038043;28;20129;-79
2023/07/27 04:44:11;;;;;;;7.07;3.53;;;15.00;4.70;;;;;;5040578;28;20382;-78
2023/07/27 04:46:38;;;;;;;8.38;3.63;;;15.00;4.70;;;;;;5038036;28;20044;-80
2023/07/27 04:49:06;;;;;;;5.13;3.03;;;15.10;10.90;;;;;;5040890;28;20049;-80
2023/07/27 04:51:33;;;;;;;5.22;3.22;;;15.10;18.90;;;;;;5032180;28;20046;-80
2023/07/27 04:54:00;;;;;;;5.00;2.95;;;15.20;11.90;;;;;;5036506;28;20044;-80
2023/07/27 04:56:27;;;;;;;4.85;3.60;;;15.20;19.60;;;;;;5040188;28;20390;-84
2023/07/27 04:58:53;;;;;;;7.95;3.00;;;15.30;21.30;;;;;;5036861;28;20399;-78
2023/07/27 05:01:19;;;;;;;5.50;3.20;;;15.30;16.10;;;;;;5037986;28;20398;-79
2023/07/27 05:03:45;;;;;;;7.03;3.28;;;15.40;33.10;;;;;;5051452;28;20135;-78
2023/07/27 05:06:11;;;;;;;3.17;2.67;;;15.40;34.90;;;;;;5037465;28;20038;-79
2023/07/27 05:08:38;;;;;;;7.97;3.22;;;15.30;56.20;;;;;;5033829;28;20056;-80
2023/07/27 05:11:07;;;;;;;6.32;3.05;;;15.40;84.50;;;;;;5036442;28;20025;-82
2023/07/27 05:13:34;;;;;;;4.63;3.63;;;15.40;86.60;;;;;;5054910;28;20333;-80
2023/07/27 05:16:01;;;;;;;4.50;2.90;;;15.40;89.30;;;;;;5034917;28;20037;-79
2023/07/27 05:18:27;;;;;;;4.80;2.83;;;15.50;83.60;;;;;;5036417;28;20442;-84
2023/07/27 05:20:54;;;;;;;3.85;2.88;;;15.50;54.60;;;;;;5039812;28;20033;-80
2023/07/27 05:23:21;;;;;;;4.72;3.55;;;15.60;76.40;;;;;;5041655;28;20034;-79
2023/07/27 05:25:47;;;;;;;6.40;2.72;;;15.70;42.10;;;;;;5035388;28;20055;-81
2023/07/27 05:28:14;;;;;;;6.53;3.17;;;15.70;45.90;;;;;;5039212;28;20064;-80
2023/07/27 05:30:41;;;;;;;4.35;3.00;;;15.80;53.20;;;;;;5035042;28;20041;-80
2023/07/27 05:33:08;;;;;;;3.40;2.65;;;15.80;74.80;;;;;;5037177;28;20030;-79
2023/07/27 05:35:34;;;;;;;4.97;3.40;;;15.80;55.80;;;;;;5035297;28;20039;-82
2023/07/27 05:38:00;;;;;;;5.30;3.30;;;15.80;67.20;;;;;;5035910;28;20483;-80
2023/07/27 05:40:26;;;;;;;5.55;3.10;;;15.80;77.60;;;;;;5039902;28;20489;-80
2023/07/27 05:42:52;;;;;;;3.67;2.90;;;15.70;64.20;;;;;;5037447;28;20043;-80
2023/07/27 05:45:20;;;;;;;6.05;2.90;;;15.80;77.80;;;;;;5037262;28;20045;-79
2023/07/27 05:47:46;;;;;;;4.70;2.63;;;15.80;81.30;;;;;;5036189;28;20037;-79
2023/07/27 05:50:12;;;;;;;4.65;3.08;;;15.80;61.50;;;;;;5038492;28;20093;-79
2023/07/27 05:52:38;;;;;;;5.05;3.28;;;15.80;58.70;;;;;;5035918;28;20455;-79
2023/07/27 05:55:05;;;;;;;4.32;3.15;;;15.90;62.20;;;;;;5038858;28;20056;-79
2023/07/27 05:57:31;;;;;;;4.57;3.13;;;15.80;47.20;;;;;;5051372;28;20458;-83
2023/07/27 05:59:57;;;;;;;4.75;3.13;;;15.80;70.20;;;;;;5035761;28;20050;-78
2023/07/27 06:02:23;;;;;;;5.72;2.75;;;15.90;89.20;;;;;;5034642;28;20470;-80
2023/07/27 06:04:49;;;;;;;5.85;3.30;;;15.90;91.30;;;;;;5035136;28;20586;-79
2023/07/27 06:07:15;;;;;;;4.45;2.75;;;15.90;74.40;;;;;;5037008;28;20462;-80
2023/07/27 06:09:42;;;;;;;5.28;3.55;;;15.90;89.90;;;;;;5039058;28;20040;-80
2023/07/27 06:12:11;;;;;;;3.72;2.95;;;15.90;99.90;;;;;;5039184;28;20032;-80
2023/07/27 06:14:41;;;;;;;5.97;3.63;;;15.90;99.90;;;;;;5035299;28;20043;-80
2023/07/27 06:17:07;;;;;;;4.47;2.83;;;16.00;99.90;;;;;;5031061;28;20394;-82
2023/07/27 06:19:34;;;;;;;4.78;3.72;;;16.00;83.50;;;;;;5035870;28;20037;-80
2023/07/27 06:22:00;;;;;;;5.03;2.88;;;16.00;99.90;;;;;;5037450;28;20041;-81
2023/07/27 06:24:26;;;;;;;5.03;3.20;;;16.10;99.90;;;;;;5038874;28;20026;-80
2023/07/27 06:26:52;;;;;;;4.88;3.10;;;16.10;99.90;;;;;;5032791;28;20047;-81
2023/07/27 06:29:19;;;;;;;13.25;3.28;;;16.10;99.90;;;;;;5035370;28;20025;-80
2023/07/27 06:31:45;;;;;;;5.10;3.15;;;16.00;99.90;;;;;;5036702;28;20382;-82
2023/07/27 06:34:11;;;;;;;5.38;2.85;;;16.00;99.90;;;;;;5039377;28;20378;-81
2023/07/27 06:36:37;;;;;;;7.30;3.30;;;16.00;99.90;;;;;;5032926;28;20052;-79
2023/07/27 06:39:04;;;;;;;5.15;3.47;;;15.90;99.90;;;;;;5027184;28;20030;-79
2023/07/27 06:41:31;;;;;;;5.82;3.47;;;15.90;99.90;;;;;;5033352;28;20029;-80
2023/07/27 06:43:59;;;;;;;5.57;3.55;;;16.00;99.90;;;;;;5044788;28;20042;-79
2023/07/27 06:46:26;;;;;;;4.30;3.15;;;15.90;99.90;;;;;;5027923;28;20037;-80
2023/07/27 06:48:53;;;;;;;6.50;3.95;;;15.90;99.90;;;;;;5033648;28;20033;-79
2023/07/27 06:51:19;;;;;;;5.40;3.35;;;15.90;99.90;;;;;;5028968;28;20033;-76
2023/07/27 06:53:45;;;;;;;5.80;3.65;;;15.90;99.90;;;;;;5047520;28;20034;-79
2023/07/27 06:56:11;;;;;;;5.38;3.10;;;15.90;99.90;;;;;;5035409;28;20041;-79
2023/07/27 06:58:37;;;;;;;4.88;3.03;;;15.90;99.90;;;;;;5030796;28;20037;-79
2023/07/27 07:01:04;;;;;;;5.38;3.88;;;15.80;99.90;;;;;;5038045;28;20437;-79
2023/07/27 07:03:33;;;;;;;6.40;3.53;;;15.80;99.90;;;;;;5037882;28;20045;-83
2023/07/27 07:05:59;;;;;;;4.70;3.65;;;15.70;99.90;;;;;;5035782;28;20044;-77
2023/07/27 07:08:25;;;;;;;4.18;2.95;;;15.70;99.90;;;;;;5034377;28;20037;-75
2023/07/27 07:10:51;;;;;;;4.40;3.30;;;15.70;99.90;;;;;;5034830;28;20116;-75
2023/07/27 07:13:17;;;;;;;6.95;3.50;;;15.70;99.90;;;;;;5047534;28;20041;-74
2023/07/27 07:15:45;;;;;;;7.57;3.47;;;15.70;99.90;;;;;;5031276;28;20049;-76
2023/07/27 07:18:11;;;;;;;6.28;3.50;;;15.60;99.90;;;;;;5031734;28;20356;-75
2023/07/27 07:20:37;;;;;;;4.97;3.50;;;15.60;99.90;;;;;;5034928;28;20355;-78
2023/07/27 07:23:03;;;;;;;5.13;3.30;;;15.60;99.90;;;;;;5033837;28;20463;-78
2023/07/27 07:25:29;;;;;;;6.82;4.05;;;15.50;99.90;;;;;;5030846;28;20045;-80
2023/07/27 07:27:55;;;;;;;4.55;3.80;;;15.60;99.90;;;;;;5033452;28;20028;-76
2023/07/27 07:30:22;;;;;;;8.55;3.80;;;15.50;99.90;;;;;;5038593;28;20048;-76
2023/07/27 07:32:50;;;;;;;7.68;3.72;;;15.50;99.90;;;;;;5036035;28;20030;-77
2023/07/27 07:35:16;;;;;;;3.97;3.38;;;15.50;99.90;;;;;;5036228;28;20041;-76
2023/07/27 07:37:42;;;;;;;7.25;3.75;;;15.50;99.90;;;;;;5032924;28;20039;-75
2023/07/27 07:40:08;;;;;;;7.88;4.50;;;15.50;99.90;;;;;;5036642;28;20036;-74
2023/07/27 07:42:34;;;;;;;4.95;3.67;;;15.50;99.90;;;;;;5031692;28;20041;-77
2023/07/27 07:45:01;;;;;;;7.18;4.38;;;15.50;99.90;;;;;;5034084;28;20040;-73
2023/07/27 07:47:27;;;;;;;7.05;4.35;;;15.40;99.90;;;;;;5033523;28;20108;-74
2023/07/27 07:49:53;;;;;;;10.32;3.85;;;15.40;99.90;;;;;;5033700;28;20033;-74
2023/07/27 07:52:19;;;;;;;8.27;4.45;;;15.40;99.90;;;;;;5036167;28;20059;-75
2023/07/27 07:54:45;;;;;;;6.47;4.18;;;15.40;99.90;;;;;;5032395;28;20029;-76
2023/07/27 07:57:12;;;;;;;9.18;4.97;;;15.40;99.90;;;;;;5032778;28;20390;-75
2023/07/27 07:59:38;;;;;;;6.03;4.72;;;15.40;99.90;;;;;;5035422;28;20068;-74
2023/07/27 08:02:04;;;;;;;7.90;4.30;;;15.40;99.90;;;;;;5035971;28;20057;-77
2023/07/27 08:04:30;;;;;;;5.93;4.60;;;15.30;1.00;;;;;;5036083;28;20045;-78
2023/07/27 08:06:56;;;;;;;8.52;5.32;;;15.30;1.00;;;;;;5033220;28;20032;-77
2023/07/27 08:09:23;;;;;;;6.30;4.97;;;15.30;1.00;;;;;;5033456;28;20025;-77
2023/07/27 08:11:49;;;;;;;7.38;4.80;;;15.20;1.00;;;;;;5039231;28;20050;-79
2023/07/27 08:14:15;;;;;;;11.68;6.03;;;15.20;1.00;;;;;;5038092;28;20029;-80
2023/07/27 08:16:41;;;;;;;6.25;5.63;;;15.20;1.00;;;;;;5034027;28;20037;-80
2023/07/27 08:19:07;;;;;;;8.25;5.82;;;15.30;1.00;;;;;;5038488;28;20389;-79
2023/07/27 08:21:33;;;;;;;11.13;5.30;;;15.30;1.00;;;;;;5041263;28;20029;-88
2023/07/27 08:23:59;;;;;;;7.68;6.00;;;15.30;1.00;;;;;;5034010;28;20037;-79
2023/07/27 08:26:26;;;;;;;8.23;5.85;;;15.30;1.00;;;;;;5034591;28;20044;-78
2023/07/27 08:28:52;;;;;;;7.43;5.55;;;15.30;1.00;;;;;;5036041;28;20482;-79
2023/07/27 08:31:18;;;;;;;10.65;7.85;;;15.30;1.00;;;;;;5039290;28;20040;-77
2023/07/27 08:33:44;;;;;;;9.52;7.30;;;15.40;1.00;;;;;;5035611;28;20045;-76
2023/07/27 08:36:10;;;;;;;8.95;7.30;;;15.40;1.00;;;;;;5036173;28;20048;-77
2023/07/27 08:38:36;;;;;;;7.03;5.80;;;15.40;1.00;;;;;;5037425;28;20046;-80
2023/07/27 08:41:02;;;;;;;12.85;7.60;;;15.30;1.00;;;;;;5034571;28;20033;-77
2023/07/27 08:43:29;;;;;;;9.20;7.00;;;15.30;1.00;;;;;;5037998;28;20021;-81
2023/07/27 08:45:55;;;;;;;9.23;7.10;;;15.30;1.00;;;;;;5036311;28;20044;-77
2023/07/27 08:48:24;;;;;;;8.18;7.13;;;15.20;1.00;;;;;;5038019;28;20052;-74
2023/07/27 08:50:52;;;;;;;10.43;7.28;;;15.20;1.00;;;;;;5035721;28;20029;-75
2023/07/27 08:53:18;;;;;;;8.38;6.68;;;15.20;1.00;;;;;;5036937;28;20037;-77
2023/07/27 08:55:45;;;;;;;10.80;7.90;;;15.10;1.00;;;;;;5036197;28;20383;-75
2023/07/27 08:58:11;;;;;;;10.60;7.13;;;15.10;7.60;;;;;;5037543;28;20475;-74
2023/07/27 09:00:40;;;;;;;12.95;7.00;;;15.10;14.60;;;;;;5037791;28;20061;-78
2023/07/27 09:03:07;;;;;;;12.18;6.88;;;15.00;18.50;;;;;;5035764;28;20480;-75
2023/07/27 09:05:45;;;;;;;10.88;7.03;;;15.10;26.80;;;;;;5039038;28;20505;-74
2023/07/27 09:08:13;;;;;;;11.00;7.85;;;15.10;35.00;;;;;;5039047;28;20036;-83
2023/07/27 09:10:41;;;;;;;7.75;5.90;;;15.20;46.50;;;;;;5034543;28;20039;-82
2023/07/27 09:13:07;;;;;;;9.57;6.88;;;15.20;44.20;;;;;;5043986;28;20040;-87
2023/07/27 09:15:36;;;;;;;7.53;5.32;;;15.30;41.10;;;;;;5047533;28;20040;-82
2023/07/27 09:18:09;;;;;;;7.70;5.60;;;15.40;33.30;;;;;;5036952;28;20041;-75
2023/07/27 09:20:35;;;;;;;5.57;4.85;;;15.50;19.70;;;;;;5033200;28;20366;-76
2023/07/27 09:23:02;;;;;;;7.57;5.55;;;15.50;1.00;;;;;;5035480;28;20056;-73
2023/07/27 09:25:28;;;;;;;8.02;5.00;;;15.60;1.00;;;;;;5039061;28;20033;-74
2023/07/27 09:27:55;;;;;;;7.57;4.65;;;15.70;1.00;;;;;;5037503;28;20029;-75
2023/07/27 09:30:23;;;;;;;6.22;4.60;;;15.80;1.00;;;;;;5037380;28;20033;-74
2023/07/27 09:32:51;;;;;;;7.45;4.90;;;15.90;1.00;;;;;;5033508;28;20040;-74
2023/07/27 09:35:19;;;;;;;6.97;4.30;;;15.80;1.00;;;;;;5034341;28;20046;-75
2023/07/27 09:37:47;;;;;;;6.43;4.05;;;15.90;1.00;;;;;;5037560;28;20041;-74
2023/07/27 09:40:19;;;;;;;6.55;4.10;;;15.80;1.00;;;;;;5039375;28;20033;-73
2023/07/27 09:42:46;;;;;;;10.18;4.43;;;15.70;1.00;;;;;;5036946;28;20041;-74
2023/07/27 09:45:13;;;;;;;4.60;3.53;;;15.70;1.00;;;;;;5032625;28;20039;-73
2023/07/27 09:47:40;;;;;;;8.75;4.88;;;15.70;1.00;;;;;;5034832;28;20410;-76
2023/07/27 09:50:07;;;;;;;6.35;4.28;;;15.60;1.00;;;;;;5035755;28;20039;-72
2023/07/27 09:52:36;;;;;;;5.35;4.78;;;15.60;1.00;;;;;;5030430;28;20021;-72
2023/07/27 09:55:03;;;;;;;11.52;5.05;;;15.60;1.00;;;;;;5033177;28;20044;-73
2023/07/27 09:57:29;;;;;;;6.18;4.20;;;15.60;1.00;;;;;;5034087;28;20037;-74
2023/07/27 09:59:55;;;;;;;5.13;3.78;;;15.70;1.00;;;;;;5032638;28;20042;-73
2023/07/27 10:02:22;;;;;;;6.55;4.25;;;15.70;1.00;;;;;;5037466;28;20041;-72
2023/07/27 10:04:52;;;;;;;7.25;3.78;;;15.70;1.00;;;;;;5033482;28;20041;-74
2023/07/27 10:07:20;;;;;;;5.70;3.92;;;15.80;1.00;;;;;;5037529;28;20382;-73
2023/07/27 10:09:46;;;;;;;5.53;3.90;;;15.80;1.00;;;;;;5037593;28;20026;-73
2023/07/27 10:12:27;;;;;;;6.25;4.13;;;15.80;1.00;;;;;;5035376;28;20037;-73
2023/07/27 10:15:20;;;;;;;8.52;4.43;;;15.90;1.00;;;;;;5036467;28;20021;-74
2023/07/27 10:17:50;;;;;;;5.10;4.15;;;15.90;1.00;;;;;;5027090;28;20060;-72
2023/07/27 10:20:30;;;;;;;9.38;4.70;;;15.90;1.00;;;;;;5025233;28;20036;-73
2023/07/27 10:23:09;;;;;;;8.65;5.07;;;16.00;1.00;;;;;;5037652;28;20038;-72
2023/07/27 10:25:57;;;;;;;9.18;5.22;;;16.00;1.00;;;;;;5033748;28;20033;-73
2023/07/27 10:28:37;;;;;;;7.47;4.65;;;16.00;1.00;;;;;;5028965;28;20026;-74
2023/07/27 10:31:25;;;;;;;6.40;5.50;;;16.10;1.00;;;;;;5030917;28;20037;-76
2023/07/27 10:33:59;;;;;;;6.95;5.15;;;16.10;1.00;;;;;;5034839;28;20059;-75
2023/07/27 10:36:47;;;;;;;6.18;5.10;;;16.10;1.00;;;;;;5030627;28;20037;-75
2023/07/27 10:39:18;;;;;;;5.82;5.22;;;16.10;1.00;;;;;;5037256;28;20405;-75
2023/07/27 10:42:00;;;;;;;7.28;5.10;;;16.00;1.00;;;;;;5034825;28;20045;-80
2023/07/27 10:44:47;;;;;;;5.03;4.53;;;16.00;1.00;;;;;;5034041;28;20028;-76
2023/07/27 10:47:21;;;;;;;6.60;4.75;;;16.00;1.00;;;;;;5033102;28;20483;-75
2023/07/27 10:49:49;;;;;;;7.40;5.05;;;15.90;1.00;;;;;;5032455;28;20390;-77
2023/07/27 10:52:18;;;;;;;5.53;4.30;;;15.90;1.00;;;;;;5038444;28;20355;-73
2023/07/27 10:54:45;;;;;;;8.13;4.95;;;15.90;1.00;;;;;;5037578;28;20053;-78
2023/07/27 10:57:12;;;;;;;8.07;4.97;;;15.90;1.00;;;;;;5030912;28;20030;-75
2023/07/27 10:59:41;;;;;;;6.82;5.55;;;15.90;1.00;;;;;;5047248;28;20061;-74
2023/07/27 11:02:38;;;;;;;9.48;4.80;;;16.00;1.00;;;;;;5026286;28;20033;-76
2023/07/27 11:05:07;;;;;;;8.15;4.72;;;16.00;1.00;;;;;;5039435;28;20477;-87
2023/07/27 11:07:46;;;;;;;6.30;4.22;;;16.00;1.00;;;;;;5036994;28;20041;-88
2023/07/27 11:10:20;;;;;;;7.57;5.22;;;16.00;1.00;;;;;;5036186;28;20021;-87
2023/07/27 11:12:50;;;;;;;5.10;4.38;;;16.00;1.00;;;;;;5034642;28;20045;-84
2023/07/27 11:15:20;;;;;;;9.38;5.40;;;16.10;1.00;;;;;;5032544;28;20029;-89
2023/07/27 11:17:48;;;;;;;8.65;5.13;;;16.10;1.00;;;;;;5036984;28;20394;-78
2023/07/27 11:20:17;;;;;;;7.82;5.38;;;16.10;1.00;;;;;;5037601;28;20147;-75
2023/07/27 11:22:44;;;;;;;7.13;5.25;;;16.10;1.00;;;;;;5037585;28;20033;-80
2023/07/27 11:25:10;;;;;;;8.50;5.28;;;16.20;1.00;;;;;;5049927;28;20076;-74
2023/07/27 11:27:39;;;;;;;6.65;5.18;;;16.20;1.00;;;;;;5035466;28;20033;-74
2023/07/27 11:30:09;;;;;;;7.57;5.90;;;16.30;1.00;;;;;;5034377;28;20032;-74
2023/07/27 11:32:35;;;;;;;14.80;6.18;;;16.30;1.00;;;;;;5036488;28;20399;-75
2023/07/27 11:35:01;;;;;;;7.40;6.03;;;16.30;1.00;;;;;;5034136;28;20379;-72
2023/07/27 11:37:30;;;;;;;9.73;6.35;;;16.40;1.00;;;;;;5028984;28;20040;-74
2023/07/27 11:39:57;;;;;;;9.55;6.18;;;16.50;1.00;;;;;;5026930;28;20037;-73
2023/07/27 11:42:34;;;;;;;9.82;6.32;;;16.60;1.00;;;;;;5030525;28;20409;-74
2023/07/27 11:45:00;;;;;;;9.90;6.80;;;16.60;1.00;;;;;;5036316;28;20050;-74
2023/07/27 11:47:26;;;;;;;9.30;7.00;;;16.70;1.00;;;;;;5032730;28;20040;-75
2023/07/27 11:49:57;;;;;;;9.02;6.65;;;16.80;1.00;;;;;;5032932;28;20389;-74
2023/07/27 11:52:25;;;;;;;7.85;6.97;;;16.90;1.00;;;;;;5032675;28;20029;-75
2023/07/27 11:54:52;;;;;;;9.73;6.78;;;17.00;1.00;;;;;;5030899;28;20529;-75
2023/07/27 11:57:18;;;;;;;10.48;7.28;;;17.00;1.00;;;;;;5031186;28;20033;-74
2023/07/27 12:00:14;;;;;;;6.63;5.43;;;17.00;1.00;;;;;;5030335;28;20068;-79
2023/07/27 12:02:45;;;;;;;8.77;6.22;;;16.90;1.00;;;;;;5033296;28;20041;-75
2023/07/27 12:05:12;;;;;;;;;;;16.90;1.00;;;;;;5037737;28;20041;-73
2023/07/27 12:07:38;;;;;;;7.13;5.45;;;16.80;1.00;;;;;;5033283;28;19905;-73
2023/07/27 12:10:09;;;;;;;9.48;7.15;;;16.80;1.00;;;;;;5030027;28;20850;-73
2023/07/27 12:12:42;;;;;;;;;;;16.90;1.00;;;;;;5034893;28;20406;-74
2023/07/27 12:15:32;;;;;;;8.15;5.85;;;16.80;1.00;;;;;;5035628;28;19909;-75
2023/07/27 12:18:00;;;;;;;;;;;16.80;1.00;;;;;;5035124;28;20049;-74
2023/07/27 12:20:29;;;;;;;10.52;6.70;;;16.80;1.00;;;;;;5034499;28;19909;-74
2023/07/27 12:22:56;;;;;;;7.57;6.00;;;16.70;1.00;;;;;;5032912;28;20041;-75
2023/07/27 12:25:24;;;;;;;7.68;6.78;;;16.70;1.00;;;;;;5027469;28;20041;-74
2023/07/27 12:27:50;;;;;;;9.00;6.90;;;16.70;1.00;;;;;;5033661;28;20463;-77
2023/07/27 12:30:16;;;;;;;8.55;6.75;;;16.70;1.00;;;;;;5031481;28;20493;-75
2023/07/27 12:32:42;;;;;;;8.55;6.90;;;16.80;1.00;;;;;;5050541;28;20033;-75
2023/07/27 12:35:10;;;;;;;10.00;6.40;;;16.90;1.00;;;;;;5031610;28;20029;-75
2023/07/27 12:37:36;;;;;;;6.18;5.55;;;17.10;1.00;;;;;;5037991;28;20528;-75
2023/07/27 12:40:03;;;;;;;9.65;5.72;;;17.10;1.00;;;;;;5033750;28;20033;-76
2023/07/27 12:42:29;;;;;;;7.22;5.45;;;17.20;1.00;;;;;;5034645;28;20582;-75
2023/07/27 12:44:56;;;;;;;8.95;5.72;;;17.20;1.00;;;;;;5033535;28;20351;-79
2023/07/27 12:47:23;;;;;;;6.97;5.70;;;17.40;1.00;;;;;;5033546;28;20037;-76
2023/07/27 12:49:49;;;;;;;7.28;5.20;;;17.50;1.00;;;;;;5040811;28;20459;-80
2023/07/27 12:52:15;;;;;;;7.07;5.00;;;17.70;1.00;;;;;;5032727;28;20320;-88
2023/07/27 12:54:42;;;;;;;6.55;4.60;;;18.00;1.00;;;;;;5036494;28;20058;-77
2023/07/27 12:57:08;;;;;;;7.78;5.05;;;18.20;1.00;;;;;;5035574;28;20057;-77
2023/07/27 12:59:35;;;;;;;8.10;4.72;;;18.30;1.00;;;;;;5038054;28;20060;-76